sensor_id;sensor_type;location;lat;lon;timestamp;pressure;altitude;pressure_sealevel;temperature;humidity
29379;BME280;16362;47.202;15.258;2023-05-21T00:00:24;96247.50;;;11.69;100.00
29379;BME280;16362;47.202;15.258;2023-05-21T00:02:50;96251.22;;;11.68;100.00
29379;BME280;16362;47.202;15.258;2023-05-21T00:05:17;96242.72;;;11.64;100.00
29379;BME280;16362;47.202;15.258;2023-05-21T00:07:44;96251.25;;;11.59;100.00
29379;BME280;16362;47.202;15.258;2023-05-21T00:10:12;96250.81;;;11.56;100.00
29379;BME280;16362;47.202;15.258;2023-05-21T00:12:39;96243.31;;;11.51;100.00
29379;BME280;16362;47.202;15.258;2023-05-21T00:15:07;96237.34;;;11.49;100.00
29379;BME280;16362;47.202;15.258;2023-05-21T00:17:34;96243.06;;;11.46;100.00
29379;BME280;16362;47.202;15.258;2023-05-21T00:20:06;96235.19;;;11.44;100.00
29379;BME280;16362;47.202;15.258;2023-05-21T00:22:34;96238.06;;;11.43;100.00
29379;BME280;16362;47.202;15.258;2023-05-21T00:25:02;96230.03;;;11.43;100.00
29379;BME280;16362;47.202;15.258;2023-05-21T00:27:29;96232.72;;;11.43;100.00
29379;BME280;16362;47.202;15.258;2023-05-21T00:29:56;96231.69;;;11.44;100.00
29379;BME280;16362;47.202;15.258;2023-05-21T00:32:23;96235.19;;;11.44;100.00
29379;BME280;16362;47.202;15.258;2023-05-21T00:34:50;96232.38;;;11.46;100.00
29379;BME280;16362;47.202;15.258;2023-05-21T00:37:17;96228.84;;;11.45;100.00
29379;BME280;16362;47.202;15.258;2023-05-21T00:39:44;96227.03;;;11.46;100.00
29379;BME280;16362;47.202;15.258;2023-05-21T00:42:11;96228.03;;;11.45;100.00
29379;BME280;16362;47.202;15.258;2023-05-21T00:44:38;96227.34;;;11.43;100.00
29379;BME280;16362;47.202;15.258;2023-05-21T00:47:05;96222.03;;;11.43;100.00
29379;BME280;16362;47.202;15.258;2023-05-21T00:49:33;96223.03;;;11.42;100.00
29379;BME280;16362;47.202;15.258;2023-05-21T00:52:00;96224.69;;;11.43;100.00
29379;BME280;16362;47.202;15.258;2023-05-21T00:54:27;96215.56;;;11.37;100.00
29379;BME280;16362;47.202;15.258;2023-05-21T00:56:55;96215.75;;;11.36;100.00
29379;BME280;16362;47.202;15.258;2023-05-21T00:59:22;96217.59;;;11.35;100.00
29379;BME280;16362;47.202;15.258;2023-05-21T01:01:51;96214.94;;;11.35;100.00
29379;BME280;16362;47.202;15.258;2023-05-21T01:04:22;96224.41;;;11.38;100.00
29379;BME280;16362;47.202;15.258;2023-05-21T01:06:49;96215.75;;;11.36;100.00
29379;BME280;16362;47.202;15.258;2023-05-21T01:13:49;96216.56;;;11.36;100.00
29379;BME280;16362;47.202;15.258;2023-05-21T01:16:16;96213.91;;;11.36;100.00
29379;BME280;16362;47.202;15.258;2023-05-21T01:18:43;96210.88;;;11.39;100.00
29379;BME280;16362;47.202;15.258;2023-05-21T01:21:11;96209.03;;;11.40;100.00
29379;BME280;16362;47.202;15.258;2023-05-21T01:23:37;96208.84;;;11.41;100.00
29379;BME280;16362;47.202;15.258;2023-05-21T01:26:04;96202.69;;;11.41;100.00
29379;BME280;16362;47.202;15.258;2023-05-21T01:28:32;96199.81;;;11.42;100.00
29379;BME280;16362;47.202;15.258;2023-05-21T01:31:14;96197.97;;;11.43;100.00
29379;BME280;16362;47.202;15.258;2023-05-21T01:33:48;96204.16;;;11.43;100.00
29379;BME280;16362;47.202;15.258;2023-05-21T01:36:23;96194.97;;;11.46;100.00
29379;BME280;16362;47.202;15.258;2023-05-21T01:39:11;96188.25;;;11.50;100.00
29379;BME280;16362;47.202;15.258;2023-05-21T01:41:43;96185.19;;;11.53;100.00
29379;BME280;16362;47.202;15.258;2023-05-21T01:44:10;96183.16;;;11.55;100.00
29379;BME280;16362;47.202;15.258;2023-05-21T01:46:38;96189.78;;;11.59;100.00
29379;BME280;16362;47.202;15.258;2023-05-21T01:49:06;96192.47;;;11.59;100.00
29379;BME280;16362;47.202;15.258;2023-05-21T01:51:34;96181.78;;;11.59;100.00
29379;BME280;16362;47.202;15.258;2023-05-21T01:54:02;96186.28;;;11.59;100.00
29379;BME280;16362;47.202;15.258;2023-05-21T01:56:28;96175.97;;;11.56;100.00
29379;BME280;16362;47.202;15.258;2023-05-21T01:58:55;96180.47;;;11.55;100.00
29379;BME280;16362;47.202;15.258;2023-05-21T02:01:24;96174.97;;;11.57;100.00
29379;BME280;16362;47.202;15.258;2023-05-21T02:03:52;96180.47;;;11.55;100.00
29379;BME280;16362;47.202;15.258;2023-05-21T02:06:19;96182.34;;;11.55;100.00
29379;BME280;16362;47.202;15.258;2023-05-21T02:08:46;96178.84;;;11.54;100.00
29379;BME280;16362;47.202;15.258;2023-05-21T02:11:13;96170.16;;;11.52;100.00
29379;BME280;16362;47.202;15.258;2023-05-21T02:13:40;96176.81;;;11.56;100.00
29379;BME280;16362;47.202;15.258;2023-05-21T02:16:08;96166.97;;;11.57;100.00
29379;BME280;16362;47.202;15.258;2023-05-21T02:18:43;96159.75;;;11.57;100.00
29379;BME280;16362;47.202;15.258;2023-05-21T02:21:10;96162.81;;;11.54;100.00
29379;BME280;16362;47.202;15.258;2023-05-21T02:23:37;96162.16;;;11.52;100.00
29379;BME280;16362;47.202;15.258;2023-05-21T02:26:04;96160.13;;;11.54;100.00
29379;BME280;16362;47.202;15.258;2023-05-21T02:28:31;96157.00;;;11.51;100.00
29379;BME280;16362;47.202;15.258;2023-05-21T02:30:58;96157.81;;;11.51;100.00
29379;BME280;16362;47.202;15.258;2023-05-21T02:33:26;96160.66;;;11.50;100.00
29379;BME280;16362;47.202;15.258;2023-05-21T02:35:52;96159.19;;;11.47;100.00
29379;BME280;16362;47.202;15.258;2023-05-21T02:38:19;96160.22;;;11.46;100.00
29379;BME280;16362;47.202;15.258;2023-05-21T02:40:49;96160.22;;;11.46;100.00
29379;BME280;16362;47.202;15.258;2023-05-21T02:43:19;96155.03;;;11.44;100.00
29379;BME280;16362;47.202;15.258;2023-05-21T02:45:45;96151.91;;;11.41;100.00
29379;BME280;16362;47.202;15.258;2023-05-21T02:48:13;96152.72;;;11.41;100.00
29379;BME280;16362;47.202;15.258;2023-05-21T02:50:40;96166.09;;;11.41;100.00
29379;BME280;16362;47.202;15.258;2023-05-21T02:53:06;96172.00;;;11.37;100.00
29379;BME280;16362;47.202;15.258;2023-05-21T02:55:33;96167.66;;;11.36;100.00
29379;BME280;16362;47.202;15.258;2023-05-21T02:58:01;96169.31;;;11.37;100.00
29379;BME280;16362;47.202;15.258;2023-05-21T03:00:28;96172.72;;;11.31;100.00
29379;BME280;16362;47.202;15.258;2023-05-21T03:02:55;96171.41;;;11.26;100.00
29379;BME280;16362;47.202;15.258;2023-05-21T03:05:22;96169.94;;;11.24;100.00
29379;BME280;16362;47.202;15.258;2023-05-21T03:07:49;96175.09;;;11.25;100.00
29379;BME280;16362;47.202;15.258;2023-05-21T03:10:16;96169.75;;;11.25;100.00
29379;BME280;16362;47.202;15.258;2023-05-21T03:12:43;96173.50;;;11.16;100.00
29379;BME280;16362;47.202;15.258;2023-05-21T03:15:10;96168.69;;;11.11;100.00
29379;BME280;16362;47.202;15.258;2023-05-21T03:17:40;96170.19;;;11.14;100.00
29379;BME280;16362;47.202;15.258;2023-05-21T03:20:10;96177.19;;;11.15;100.00
29379;BME280;16362;47.202;15.258;2023-05-21T03:22:43;96171.66;;;11.17;100.00
29379;BME280;16362;47.202;15.258;2023-05-21T03:25:11;96173.34;;;11.18;100.00
29379;BME280;16362;47.202;15.258;2023-05-21T03:27:38;96163.00;;;11.15;100.00
29379;BME280;16362;47.202;15.258;2023-05-21T03:30:05;96172.03;;;11.14;100.00
29379;BME280;16362;47.202;15.258;2023-05-21T03:32:32;96162.19;;;11.14;100.00
29379;BME280;16362;47.202;15.258;2023-05-21T03:35:03;96163.38;;;11.11;100.00
29379;BME280;16362;47.202;15.258;2023-05-21T03:37:30;96165.84;;;11.13;100.00
29379;BME280;16362;47.202;15.258;2023-05-21T03:39:57;96163.84;;;11.15;100.00
29379;BME280;16362;47.202;15.258;2023-05-21T03:42:24;96163.19;;;11.13;100.00
29379;BME280;16362;47.202;15.258;2023-05-21T03:44:51;96163.38;;;11.11;100.00
29379;BME280;16362;47.202;15.258;2023-05-21T03:47:18;96151.88;;;11.11;100.00
29379;BME280;16362;47.202;15.258;2023-05-21T03:49:44;96152.50;;;11.13;100.00
29379;BME280;16362;47.202;15.258;2023-05-21T03:52:11;96157.31;;;11.18;100.00
29379;BME280;16362;47.202;15.258;2023-05-21T03:54:38;96158.75;;;11.20;100.00
29379;BME280;16362;47.202;15.258;2023-05-21T03:57:05;96159.44;;;11.22;100.00
29379;BME280;16362;47.202;15.258;2023-05-21T03:59:32;96154.91;;;11.23;100.00
29379;BME280;16362;47.202;15.258;2023-05-21T04:01:59;96154.09;;;11.22;100.00
29379;BME280;16362;47.202;15.258;2023-05-21T04:04:25;96157.41;;;11.24;100.00
29379;BME280;16362;47.202;15.258;2023-05-21T04:06:55;96158.06;;;11.26;100.00
29379;BME280;16362;47.202;15.258;2023-05-21T04:09:21;96169.84;;;11.32;100.00
29379;BME280;16362;47.202;15.258;2023-05-21T04:11:48;96169.66;;;11.34;100.00
29379;BME280;16362;47.202;15.258;2023-05-21T04:14:15;96172.00;;;11.37;100.00
29379;BME280;16362;47.202;15.258;2023-05-21T04:16:42;96166.28;;;11.40;100.00
29379;BME280;16362;47.202;15.258;2023-05-21T04:19:09;96178.44;;;11.42;100.00
29379;BME280;16362;47.202;15.258;2023-05-21T04:21:36;96160.38;;;11.44;100.00
29379;BME280;16362;47.202;15.258;2023-05-21T04:24:03;96166.38;;;11.46;100.00
29379;BME280;16362;47.202;15.258;2023-05-21T04:26:30;96172.34;;;11.49;100.00
29379;BME280;16362;47.202;15.258;2023-05-21T04:28:59;96170.16;;;11.52;100.00
29379;BME280;16362;47.202;15.258;2023-05-21T04:31:29;96177.91;;;11.62;100.00
29379;BME280;16362;47.202;15.258;2023-05-21T04:33:57;96181.53;;;11.69;100.00
29379;BME280;16362;47.202;15.258;2023-05-21T04:36:24;96184.91;;;11.78;100.00
29379;BME280;16362;47.202;15.258;2023-05-21T04:38:54;96183.34;;;11.84;100.00
29379;BME280;16362;47.202;15.258;2023-05-21T04:41:21;96176.53;;;11.81;100.00
29379;BME280;16362;47.202;15.258;2023-05-21T04:43:48;96175.91;;;11.79;100.00
29379;BME280;16362;47.202;15.258;2023-05-21T04:46:15;96175.72;;;11.80;100.00
29379;BME280;16362;47.202;15.258;2023-05-21T04:48:42;96175.16;;;11.85;100.00
29379;BME280;16362;47.202;15.258;2023-05-21T04:51:08;96174.78;;;11.88;100.00
29379;BME280;16362;47.202;15.258;2023-05-21T04:53:35;96181.44;;;11.92;100.00
29379;BME280;16362;47.202;15.258;2023-05-21T04:56:02;96178.22;;;11.97;100.00
29379;BME280;16362;47.202;15.258;2023-05-21T04:58:29;96181.84;;;12.04;100.00
29379;BME280;16362;47.202;15.258;2023-05-21T05:00:58;96185.78;;;11.78;100.00
29379;BME280;16362;47.202;15.258;2023-05-21T05:03:28;96190.13;;;11.94;100.00
29379;BME280;16362;47.202;15.258;2023-05-21T05:05:55;96187.34;;;12.33;100.00
29379;BME280;16362;47.202;15.258;2023-05-21T05:08:22;96189.94;;;12.62;100.00
29379;BME280;16362;47.202;15.258;2023-05-21T05:10:49;96192.56;;;12.99;100.00
29379;BME280;16362;47.202;15.258;2023-05-21T05:13:16;96196.56;;;13.31;100.00
29379;BME280;16362;47.202;15.258;2023-05-21T05:15:43;96195.53;;;13.54;100.00
29379;BME280;16362;47.202;15.258;2023-05-21T05:18:09;96197.38;;;13.82;100.00
29379;BME280;16362;47.202;15.258;2023-05-21T05:20:37;96194.25;;;14.13;100.00
29379;BME280;16362;47.202;15.258;2023-05-21T05:23:04;96192.13;;;14.44;100.00
29379;BME280;16362;47.202;15.258;2023-05-21T05:25:31;96194.31;;;14.69;100.00
29379;BME280;16362;47.202;15.258;2023-05-21T05:27:58;96199.09;;;14.87;100.00
29379;BME280;16362;47.202;15.258;2023-05-21T05:30:25;96192.94;;;15.06;100.00
29379;BME280;16362;47.202;15.258;2023-05-21T05:32:51;96191.72;;;15.09;100.00
29379;BME280;16362;47.202;15.258;2023-05-21T05:35:18;96200.81;;;15.08;100.00
29379;BME280;16362;47.202;15.258;2023-05-21T05:37:45;96196.03;;;14.96;100.00
29379;BME280;16362;47.202;15.258;2023-05-21T05:40:12;96197.09;;;15.15;100.00
29379;BME280;16362;47.202;15.258;2023-05-21T05:42:39;96197.72;;;15.31;100.00
29379;BME280;16362;47.202;15.258;2023-05-21T05:45:06;96199.59;;;15.44;100.00
29379;BME280;16362;47.202;15.258;2023-05-21T05:47:33;96202.91;;;15.46;100.00
29379;BME280;16362;47.202;15.258;2023-05-21T05:50:00;96196.28;;;15.42;100.00
29379;BME280;16362;47.202;15.258;2023-05-21T05:52:27;96203.72;;;15.26;100.00
29379;BME280;16362;47.202;15.258;2023-05-21T05:54:53;96209.31;;;15.18;100.00
29379;BME280;16362;47.202;15.258;2023-05-21T05:57:20;96207.41;;;15.12;100.00
29379;BME280;16362;47.202;15.258;2023-05-21T05:59:47;96210.34;;;15.17;100.00
29379;BME280;16362;47.202;15.258;2023-05-21T06:02:14;96206.81;;;15.43;100.00
29379;BME280;16362;47.202;15.258;2023-05-21T06:04:42;96214.88;;;15.70;100.00
29379;BME280;16362;47.202;15.258;2023-05-21T06:07:09;96213.66;;;15.73;100.00
29379;BME280;16362;47.202;15.258;2023-05-21T06:09:36;96203.03;;;16.11;100.00
29379;BME280;16362;47.202;15.258;2023-05-21T06:12:05;96205.72;;;16.18;100.00
29379;BME280;16362;47.202;15.258;2023-05-21T06:14:32;96211.69;;;16.33;100.00
29379;BME280;16362;47.202;15.258;2023-05-21T06:16:59;96213.06;;;16.56;100.00
29379;BME280;16362;47.202;15.258;2023-05-21T06:19:26;96206.19;;;16.67;100.00
29379;BME280;16362;47.202;15.258;2023-05-21T06:21:53;96207.78;;;16.75;100.00
29379;BME280;16362;47.202;15.258;2023-05-21T06:24:19;96206.94;;;16.81;100.00
29379;BME280;16362;47.202;15.258;2023-05-21T06:26:46;96204.44;;;16.93;100.00
29379;BME280;16362;47.202;15.258;2023-05-21T06:29:13;96207.41;;;17.10;100.00
29379;BME280;16362;47.202;15.258;2023-05-21T06:31:41;96209.16;;;17.29;100.00
29379;BME280;16362;47.202;15.258;2023-05-21T06:34:07;96215.28;;;17.43;100.00
29379;BME280;16362;47.202;15.258;2023-05-21T06:36:50;96217.13;;;17.49;100.00
29379;BME280;16362;47.202;15.258;2023-05-21T06:39:17;96215.97;;;17.39;100.00
29379;BME280;16362;47.202;15.258;2023-05-21T06:41:44;96213.03;;;17.40;100.00
29379;BME280;16362;47.202;15.258;2023-05-21T06:44:10;96220.50;;;17.38;100.00
29379;BME280;16362;47.202;15.258;2023-05-21T06:46:37;96224.03;;;17.39;100.00
29379;BME280;16362;47.202;15.258;2023-05-21T06:49:04;96214.56;;;17.29;100.00
29379;BME280;16362;47.202;15.258;2023-05-21T06:51:32;96214.38;;;17.24;100.00
29379;BME280;16362;47.202;15.258;2023-05-21T06:53:59;96210.03;;;17.23;100.00
29379;BME280;16362;47.202;15.258;2023-05-21T06:56:26;96202.97;;;17.22;100.00
29379;BME280;16362;47.202;15.258;2023-05-21T06:58:53;96203.50;;;17.38;100.00
29379;BME280;16362;47.202;15.258;2023-05-21T07:01:20;96204.78;;;17.60;100.00
29379;BME280;16362;47.202;15.258;2023-05-21T07:03:48;96203.34;;;17.58;100.00
29379;BME280;16362;47.202;15.258;2023-05-21T07:06:15;96202.13;;;17.79;100.00
29379;BME280;16362;47.202;15.258;2023-05-21T07:08:42;96194.66;;;17.99;100.00
29379;BME280;16362;47.202;15.258;2023-05-21T07:11:09;96195.44;;;18.07;100.00
29379;BME280;16362;47.202;15.258;2023-05-21T07:13:36;96191.13;;;18.24;100.00
29379;BME280;16362;47.202;15.258;2023-05-21T07:16:02;96192.09;;;18.30;100.00
29379;BME280;16362;47.202;15.258;2023-05-21T07:18:30;96199.31;;;18.36;100.00
29379;BME280;16362;47.202;15.258;2023-05-21T07:20:56;96195.09;;;18.40;100.00
29379;BME280;16362;47.202;15.258;2023-05-21T07:23:23;96201.31;;;18.41;100.00
29379;BME280;16362;47.202;15.258;2023-05-21T07:25:50;96200.56;;;18.33;100.00
29379;BME280;16362;47.202;15.258;2023-05-21T07:28:17;96204.16;;;18.27;100.00
29379;BME280;16362;47.202;15.258;2023-05-21T07:30:44;96199.81;;;18.26;100.00
29379;BME280;16362;47.202;15.258;2023-05-21T07:33:11;96189.00;;;18.26;100.00
29379;BME280;16362;47.202;15.258;2023-05-21T07:35:38;96198.44;;;18.35;100.00
29379;BME280;16362;47.202;15.258;2023-05-21T07:38:05;96193.06;;;18.35;100.00
29379;BME280;16362;47.202;15.258;2023-05-21T07:40:32;96204.69;;;18.36;100.00
29379;BME280;16362;47.202;15.258;2023-05-21T07:43:00;96199.16;;;18.31;100.00
29379;BME280;16362;47.202;15.258;2023-05-21T07:45:27;96205.91;;;18.40;100.00
29379;BME280;16362;47.202;15.258;2023-05-21T07:47:53;96211.81;;;18.49;100.00
29379;BME280;16362;47.202;15.258;2023-05-21T07:50:20;96204.16;;;18.46;100.00
29379;BME280;16362;47.202;15.258;2023-05-21T07:52:47;96205.72;;;18.54;100.00
29379;BME280;16362;47.202;15.258;2023-05-21T07:55:14;96196.34;;;18.56;100.00
29379;BME280;16362;47.202;15.258;2023-05-21T07:57:41;96199.97;;;18.50;100.00
29379;BME280;16362;47.202;15.258;2023-05-21T08:00:08;96198.22;;;18.56;100.00
29379;BME280;16362;47.202;15.258;2023-05-21T08:02:36;96198.72;;;18.64;100.00
29379;BME280;16362;47.202;15.258;2023-05-21T08:05:03;96199.03;;;18.56;100.00
29379;BME280;16362;47.202;15.258;2023-05-21T08:07:30;96198.22;;;18.56;100.00
29379;BME280;16362;47.202;15.258;2023-05-21T08:09:58;96198.94;;;18.63;100.00
29379;BME280;16362;47.202;15.258;2023-05-21T08:12:26;96193.66;;;18.87;100.00
29379;BME280;16362;47.202;15.258;2023-05-21T08:14:53;96197.75;;;19.08;100.00
29379;BME280;16362;47.202;15.258;2023-05-21T08:17:20;96197.34;;;19.23;100.00
29379;BME280;16362;47.202;15.258;2023-05-21T08:19:47;96196.41;;;19.29;100.00
29379;BME280;16362;47.202;15.258;2023-05-21T08:22:14;96204.44;;;19.35;100.00
29379;BME280;16362;47.202;15.258;2023-05-21T08:24:41;96203.28;;;19.55;100.00
29379;BME280;16362;47.202;15.258;2023-05-21T08:27:08;96209.78;;;19.66;100.00
29379;BME280;16362;47.202;15.258;2023-05-21T08:29:35;96211.78;;;19.71;100.00
29379;BME280;16362;47.202;15.258;2023-05-21T08:32:02;96209.78;;;19.78;100.00
29379;BME280;16362;47.202;15.258;2023-05-21T08:34:29;96205.13;;;19.85;98.52
29379;BME280;16362;47.202;15.258;2023-05-21T08:36:57;96210.06;;;19.88;94.84
29379;BME280;16362;47.202;15.258;2023-05-21T08:39:23;96205.47;;;19.89;97.12
29379;BME280;16362;47.202;15.258;2023-05-21T08:41:56;96203.81;;;19.99;95.98
29379;BME280;16362;47.202;15.258;2023-05-21T08:44:32;96199.44;;;20.34;92.51
29379;BME280;16362;47.202;15.258;2023-05-21T08:47:00;96192.78;;;20.65;94.88
29379;BME280;16362;47.202;15.258;2023-05-21T08:49:30;96192.63;;;20.84;93.60
29379;BME280;16362;47.202;15.258;2023-05-21T08:52:00;96195.47;;;21.06;86.83
29379;BME280;16362;47.202;15.258;2023-05-21T08:54:27;96193.97;;;21.27;84.51
29379;BME280;16362;47.202;15.258;2023-05-21T08:56:55;96198.94;;;21.01;79.63
29379;BME280;16362;47.202;15.258;2023-05-21T08:59:23;96197.16;;;21.24;77.50
29379;BME280;16362;47.202;15.258;2023-05-21T09:01:50;96199.16;;;21.46;78.15
29379;BME280;16362;47.202;15.258;2023-05-21T09:04:18;96194.84;;;21.62;73.82
29379;BME280;16362;47.202;15.258;2023-05-21T09:06:47;96206.31;;;21.35;72.71
29379;BME280;16362;47.202;15.258;2023-05-21T09:09:31;96210.63;;;20.90;70.01
29379;BME280;16362;47.202;15.258;2023-05-21T09:11:59;96200.28;;;20.87;70.48
29379;BME280;16362;47.202;15.258;2023-05-21T09:14:27;96203.81;;;20.88;66.41
29379;BME280;16362;47.202;15.258;2023-05-21T09:16:54;96208.28;;;20.94;66.65
29379;BME280;16362;47.202;15.258;2023-05-21T09:19:21;96197.47;;;21.11;68.34
29379;BME280;16362;47.202;15.258;2023-05-21T09:21:51;96199.00;;;21.07;68.18
29379;BME280;16362;47.202;15.258;2023-05-21T09:24:20;96201.13;;;21.33;64.73
29379;BME280;16362;47.202;15.258;2023-05-21T09:26:50;96198.53;;;21.10;66.80
29379;BME280;16362;47.202;15.258;2023-05-21T09:29:18;96196.13;;;20.96;66.34
29379;BME280;16362;47.202;15.258;2023-05-21T09:31:44;96200.25;;;21.45;71.02
29379;BME280;16362;47.202;15.258;2023-05-21T09:34:12;96192.94;;;21.79;67.69
29379;BME280;16362;47.202;15.258;2023-05-21T09:36:41;96196.81;;;22.00;67.37
29379;BME280;16362;47.202;15.258;2023-05-21T09:39:09;96196.84;;;21.66;62.46
29379;BME280;16362;47.202;15.258;2023-05-21T09:41:41;96198.78;;;21.54;63.05
29379;BME280;16362;47.202;15.258;2023-05-21T09:44:09;96198.78;;;21.71;62.82
29379;BME280;16362;47.202;15.258;2023-05-21T09:46:37;96191.03;;;21.97;61.07
29379;BME280;16362;47.202;15.258;2023-05-21T09:49:05;96201.59;;;21.76;64.48
29379;BME280;16362;47.202;15.258;2023-05-21T09:51:32;96193.56;;;21.52;65.56
29379;BME280;16362;47.202;15.258;2023-05-21T09:53:59;96202.91;;;21.57;65.87
29379;BME280;16362;47.202;15.258;2023-05-21T09:56:27;96195.41;;;21.81;68.58
29379;BME280;16362;47.202;15.258;2023-05-21T09:58:58;96194.72;;;22.08;66.45
29379;BME280;16362;47.202;15.258;2023-05-21T10:01:30;96186.94;;;22.33;61.02
29379;BME280;16362;47.202;15.258;2023-05-21T10:03:58;96176.03;;;22.73;59.40
29379;BME280;16362;47.202;15.258;2023-05-21T10:06:28;96187.97;;;22.94;67.21
29379;BME280;16362;47.202;15.258;2023-05-21T10:08:56;96197.50;;;23.18;61.79
29379;BME280;16362;47.202;15.258;2023-05-21T10:11:26;96186.78;;;22.62;62.47
29379;BME280;16362;47.202;15.258;2023-05-21T10:14:06;96185.09;;;22.56;59.48
29379;BME280;16362;47.202;15.258;2023-05-21T10:16:35;96181.91;;;22.64;62.30
29379;BME280;16362;47.202;15.258;2023-05-21T10:19:03;96189.38;;;22.74;61.62
29379;BME280;16362;47.202;15.258;2023-05-21T10:21:31;96174.13;;;22.95;61.22
29379;BME280;16362;47.202;15.258;2023-05-21T10:24:02;96177.81;;;23.11;63.88
29379;BME280;16362;47.202;15.258;2023-05-21T10:26:30;96180.09;;;23.19;55.99
29379;BME280;16362;47.202;15.258;2023-05-21T10:28:56;96167.38;;;23.25;58.32
29379;BME280;16362;47.202;15.258;2023-05-21T10:31:26;96175.72;;;23.46;55.04
29379;BME280;16362;47.202;15.258;2023-05-21T10:33:54;96168.72;;;23.55;57.95
29379;BME280;16362;47.202;15.258;2023-05-21T10:36:23;96167.69;;;23.07;57.31
29379;BME280;16362;47.202;15.258;2023-05-21T10:38:50;96168.97;;;23.53;56.40
29379;BME280;16362;47.202;15.258;2023-05-21T10:41:18;96171.25;;;23.34;58.93
29379;BME280;16362;47.202;15.258;2023-05-21T10:49:29;96167.44;;;23.08;55.63
29379;BME280;16362;47.202;15.258;2023-05-21T10:53:07;96169.47;;;23.18;57.21
29379;BME280;16362;47.202;15.258;2023-05-21T10:58:45;96167.25;;;23.42;55.32
29379;BME280;16362;47.202;15.258;2023-05-21T11:01:14;96168.81;;;23.33;57.48
29379;BME280;16362;47.202;15.258;2023-05-21T11:03:46;96163.03;;;23.29;53.77
29379;BME280;16362;47.202;15.258;2023-05-21T11:06:25;96157.91;;;23.65;53.91
29379;BME280;16362;47.202;15.258;2023-05-21T11:08:52;96159.75;;;23.92;59.65
29379;BME280;16362;47.202;15.258;2023-05-21T11:14:30;96156.38;;;23.47;54.07
29379;BME280;16362;47.202;15.258;2023-05-21T11:17:08;96156.38;;;23.15;52.72
29379;BME280;16362;47.202;15.258;2023-05-21T11:19:37;96158.97;;;23.04;57.14
29379;BME280;16362;47.202;15.258;2023-05-21T11:22:09;96152.94;;;23.25;55.87
29379;BME280;16362;47.202;15.258;2023-05-21T11:24:46;96153.53;;;23.04;55.60
29379;BME280;16362;47.202;15.258;2023-05-21T11:27:35;96158.97;;;22.55;57.20
29379;BME280;16362;47.202;15.258;2023-05-21T11:30:16;96148.97;;;22.39;57.99
29379;BME280;16362;47.202;15.258;2023-05-21T11:35:56;96153.25;;;22.79;57.98
29379;BME280;16362;47.202;15.258;2023-05-21T11:38:27;96137.44;;;22.76;55.21
29379;BME280;16362;47.202;15.258;2023-05-21T11:41:02;96143.41;;;22.73;55.32
29379;BME280;16362;47.202;15.258;2023-05-21T11:43:29;96136.34;;;22.99;54.51
29379;BME280;16362;47.202;15.258;2023-05-21T11:45:56;96130.44;;;23.34;60.13
29379;BME280;16362;47.202;15.258;2023-05-21T11:48:24;96134.88;;;23.46;52.84
29379;BME280;16362;47.202;15.258;2023-05-21T11:50:54;96134.13;;;23.23;52.90
29379;BME280;16362;47.202;15.258;2023-05-21T11:53:22;96144.31;;;23.11;55.28
29379;BME280;16362;47.202;15.258;2023-05-21T11:55:49;96141.41;;;22.90;56.44
29379;BME280;16362;47.202;15.258;2023-05-21T11:58:23;96138.81;;;23.00;57.22
29379;BME280;16362;47.202;15.258;2023-05-21T12:00:50;96132.97;;;23.14;53.21
29379;BME280;16362;47.202;15.258;2023-05-21T12:03:17;96135.28;;;22.78;49.84
29379;BME280;16362;47.202;15.258;2023-05-21T12:05:47;96134.28;;;22.62;55.90
29379;BME280;16362;47.202;15.258;2023-05-21T12:08:22;96131.75;;;22.33;55.29
29379;BME280;16362;47.202;15.258;2023-05-21T12:10:59;96127.75;;;22.18;58.51
29379;BME280;16362;47.202;15.258;2023-05-21T12:13:27;96135.47;;;22.04;64.87
29379;BME280;16362;47.202;15.258;2023-05-21T12:15:54;96136.25;;;21.83;60.35
29379;BME280;16362;47.202;15.258;2023-05-21T12:18:21;96134.50;;;21.77;62.65
29379;BME280;16362;47.202;15.258;2023-05-21T12:20:50;96125.97;;;21.68;65.74
29379;BME280;16362;47.202;15.258;2023-05-21T12:23:27;96140.22;;;21.58;68.85
29379;BME280;16362;47.202;15.258;2023-05-21T12:25:55;96134.59;;;21.48;70.17
29379;BME280;16362;47.202;15.258;2023-05-21T12:28:23;96132.28;;;21.40;71.17
29379;BME280;16362;47.202;15.258;2023-05-21T12:30:50;96129.59;;;21.40;71.15
29379;BME280;16362;47.202;15.258;2023-05-21T12:33:17;96130.75;;;21.61;66.31
29379;BME280;16362;47.202;15.258;2023-05-21T12:35:48;96129.88;;;21.94;62.83
29379;BME280;16362;47.202;15.258;2023-05-21T12:38:15;96121.59;;;22.23;60.96
29379;BME280;16362;47.202;15.258;2023-05-21T12:40:42;96124.94;;;21.91;59.52
29379;BME280;16362;47.202;15.258;2023-05-21T12:43:11;96129.31;;;21.92;60.36
29379;BME280;16362;47.202;15.258;2023-05-21T12:45:38;96117.34;;;21.93;61.77
29379;BME280;16362;47.202;15.258;2023-05-21T12:48:06;96125.94;;;21.85;64.98
29379;BME280;16362;47.202;15.258;2023-05-21T12:50:33;96120.47;;;21.63;61.97
29379;BME280;16362;47.202;15.258;2023-05-21T12:53:01;96114.63;;;21.54;63.31
29379;BME280;16362;47.202;15.258;2023-05-21T12:55:30;96123.91;;;21.41;63.06
29379;BME280;16362;47.202;15.258;2023-05-21T12:58:03;96114.44;;;21.27;68.22
29379;BME280;16362;47.202;15.258;2023-05-21T13:00:31;96117.00;;;21.16;67.82
29379;BME280;16362;47.202;15.258;2023-05-21T13:02:59;96111.97;;;21.08;72.59
29379;BME280;16362;47.202;15.258;2023-05-21T13:05:27;96109.56;;;21.12;74.69
29379;BME280;16362;47.202;15.258;2023-05-21T13:07:54;96110.50;;;21.34;75.22